Time;durP1;ratioP1;P1;durP2;ratioP2;P2;SDS_P1;SDS_P2;PMS_P1;PMS_P2;Temp;Humidity;BMP_temperature;BMP_pressure;BME280_temperature;BME280_humidity;BME280_pressure;Samples;Min_cycle;Max_cycle;Signal;HPM_P1;HPM_P2
2023/04/11 00:00:15;;;;;;;25.33;17.67;;;9.90;66.80;;;;;;5074595;28;20207;-70
2023/04/11 00:02:45;;;;;;;26.57;18.40;;;9.90;66.80;;;;;;5074435;28;20228;-70
2023/04/11 00:05:14;;;;;;;29.30;18.77;;;9.90;67.00;;;;;;5074525;28;20199;-70
2023/04/11 00:07:42;;;;;;;25.67;18.93;;;9.80;67.40;;;;;;5074379;28;20201;-72
2023/04/11 00:10:11;;;;;;;26.63;18.43;;;9.80;67.70;;;;;;5074498;28;20210;-70
2023/04/11 00:12:39;;;;;;;26.70;18.77;;;9.80;67.60;;;;;;5074488;28;20196;-69
2023/04/11 00:15:10;;;;;;;33.40;20.43;;;9.80;67.70;;;;;;5074125;28;20678;-70
2023/04/11 00:17:40;;;;;;;31.27;20.30;;;9.80;67.60;;;;;;5074228;28;20611;-71
2023/04/11 00:20:10;;;;;;;26.30;19.20;;;9.80;67.30;;;;;;5074100;28;20326;-72
2023/04/11 00:22:39;;;;;;;26.40;18.83;;;9.80;67.50;;;;;;5074156;28;20227;-70
2023/04/11 00:25:08;;;;;;;29.27;19.30;;;9.80;68.00;;;;;;5074017;28;20203;-70
2023/04/11 00:27:36;;;;;;;29.07;18.53;;;9.70;68.40;;;;;;5073731;28;20219;-69
2023/04/11 00:30:06;;;;;;;27.30;19.47;;;9.70;68.80;;;;;;5074091;28;20210;-70
2023/04/11 00:32:36;;;;;;;27.37;19.33;;;9.70;69.10;;;;;;5074040;28;20220;-70
2023/04/11 00:35:07;;;;;;;27.63;20.40;;;9.70;69.00;;;;;;5072868;28;20298;-69
2023/04/11 00:37:36;;;;;;;26.90;19.33;;;9.70;68.80;;;;;;5073758;28;20238;-70
2023/04/11 00:40:06;;;;;;;26.43;19.47;;;9.70;68.90;;;;;;5073815;28;20379;-70
2023/04/11 00:42:35;;;;;;;29.83;20.27;;;9.70;69.00;;;;;;5073693;28;20737;-71
2023/04/11 00:45:03;;;;;;;27.20;20.47;;;9.70;69.00;;;;;;5072556;28;20208;-73
2023/04/11 00:47:33;;;;;;;28.37;20.60;;;9.70;69.10;;;;;;5076340;28;20199;-72
2023/04/11 00:50:03;;;;;;;28.93;21.53;;;9.70;69.20;;;;;;5086341;28;20223;-71
2023/04/11 00:52:33;;;;;;;34.40;20.13;;;9.60;69.40;;;;;;5074885;28;20221;-70
2023/04/11 00:55:02;;;;;;;29.03;21.03;;;9.60;69.50;;;;;;5073288;28;20228;-70
2023/04/11 00:57:31;;;;;;;31.60;20.80;;;9.60;69.70;;;;;;5073667;28;20247;-70
2023/04/11 01:00:01;;;;;;;29.03;20.23;;;9.70;69.60;;;;;;5073487;28;20247;-69
2023/04/11 01:02:30;;;;;;;25.90;19.53;;;9.70;69.80;;;;;;5073573;28;20194;-71
2023/04/11 01:04:59;;;;;;;32.00;21.27;;;9.60;69.70;;;;;;5073721;28;20602;-70
2023/04/11 01:07:31;;;;;;;32.20;22.17;;;9.60;69.80;;;;;;5073115;28;20193;-71
2023/04/11 01:10:01;;;;;;;30.53;19.67;;;9.60;69.80;;;;;;5073201;28;20580;-70
2023/04/11 01:12:30;;;;;;;28.20;19.33;;;9.60;70.00;;;;;;5072076;28;20199;-70
2023/04/11 01:14:59;;;;;;;31.77;20.43;;;9.60;70.30;;;;;;5073141;28;20533;-72
2023/04/11 01:17:27;;;;;;;30.23;20.97;;;9.60;70.30;;;;;;5073045;28;20562;-69
2023/04/11 01:19:56;;;;;;;33.23;20.80;;;9.60;70.60;;;;;;5073025;28;20302;-70
2023/04/11 01:22:26;;;;;;;30.60;20.90;;;9.60;70.70;;;;;;5072944;28;20193;-69
2023/04/11 01:24:56;;;;;;;28.97;19.47;;;9.60;71.20;;;;;;5071546;28;20237;-69
2023/04/11 01:27:24;;;;;;;28.67;18.67;;;9.60;71.40;;;;;;5071608;28;20204;-69
2023/04/11 01:29:52;;;;;;;24.63;17.87;;;9.60;71.50;;;;;;5071530;28;20214;-69
2023/04/11 01:32:21;;;;;;;24.87;17.73;;;9.60;72.30;;;;;;5077746;28;20206;-73
2023/04/11 01:34:51;;;;;;;24.43;17.00;;;9.60;72.40;;;;;;5093022;28;20201;-69
2023/04/11 01:37:20;;;;;;;20.17;15.67;;;9.60;72.60;;;;;;5092388;28;20197;-70
2023/04/11 01:39:48;;;;;;;24.97;17.63;;;9.60;72.40;;;;;;5092382;28;20689;-70
2023/04/11 01:42:19;;;;;;;25.47;18.40;;;9.60;72.60;;;;;;5092964;28;20193;-70
2023/04/11 01:44:48;;;;;;;29.43;18.90;;;9.60;72.60;;;;;;5092828;28;20191;-70
2023/04/11 01:47:17;;;;;;;27.70;18.47;;;9.60;72.80;;;;;;5092728;28;20273;-70
2023/04/11 01:49:46;;;;;;;28.03;17.93;;;9.60;72.30;;;;;;5092739;28;20665;-71
2023/04/11 01:52:14;;;;;;;26.87;18.37;;;9.60;72.40;;;;;;5091246;28;20212;-69
2023/04/11 01:54:42;;;;;;;26.57;19.10;;;9.60;72.30;;;;;;5091473;28;20222;-69
2023/04/11 01:57:11;;;;;;;25.93;18.20;;;9.50;72.60;;;;;;5092678;28;20198;-70
2023/04/11 01:59:41;;;;;;;22.70;17.40;;;9.50;72.80;;;;;;5091183;28;20225;-69
2023/04/11 02:02:09;;;;;;;24.33;16.73;;;9.50;72.70;;;;;;5091113;28;20695;-70
2023/04/11 02:04:38;;;;;;;25.13;18.17;;;9.40;72.80;;;;;;5092469;28;20260;-69
2023/04/11 02:07:06;;;;;;;28.80;17.27;;;9.50;72.90;;;;;;5091185;28;20212;-70
2023/04/11 02:09:36;;;;;;;28.60;19.00;;;9.40;72.80;;;;;;5092486;28;20195;-69
2023/04/11 02:12:05;;;;;;;27.90;18.17;;;9.50;73.10;;;;;;5092284;28;20219;-70
2023/04/11 02:14:42;;;;;;;28.70;17.00;;;9.40;72.70;;;;;;5091118;28;20542;-69
2023/04/11 02:17:13;;;;;;;22.33;16.13;;;9.40;73.40;;;;;;5090821;28;20202;-71
2023/04/11 02:19:44;;;;;;;28.40;17.13;;;9.40;73.30;;;;;;5090962;28;20384;-68
2023/04/11 02:22:12;;;;;;;21.87;15.97;;;9.40;73.50;;;;;;5092235;28;20220;-69
2023/04/11 02:24:41;;;;;;;23.90;16.77;;;9.30;74.10;;;;;;5092021;28;20201;-68
2023/04/11 02:27:12;;;;;;;22.07;15.83;;;9.30;74.70;;;;;;5092125;28;20196;-71
2023/04/11 02:29:42;;;;;;;23.90;16.20;;;9.30;75.60;;;;;;5090680;28;20216;-69
2023/04/11 02:32:10;;;;;;;24.70;15.87;;;9.40;75.10;;;;;;5090716;28;20305;-70
2023/04/11 02:34:40;;;;;;;22.30;15.47;;;9.40;74.30;;;;;;5091929;28;20622;-69
2023/04/11 02:37:09;;;;;;;23.70;16.73;;;9.30;74.60;;;;;;5090601;28;20209;-69
2023/04/11 02:39:37;;;;;;;22.97;15.37;;;9.40;74.80;;;;;;5090453;28;20580;-70
2023/04/11 02:42:05;;;;;;;23.23;17.50;;;9.40;74.50;;;;;;5091972;28;20243;-71
2023/04/11 02:44:34;;;;;;;21.07;15.27;;;9.30;75.40;;;;;;5092019;28;20197;-68
2023/04/11 02:47:05;;;;;;;18.63;14.27;;;9.30;76.00;;;;;;5090666;28;20207;-69
2023/04/11 02:49:40;;;;;;;17.57;12.50;;;9.30;77.50;;;;;;5090863;28;20215;-69
2023/04/11 02:52:10;;;;;;;20.27;13.03;;;9.30;80.00;;;;;;5090505;28;20198;-69
2023/04/11 02:54:38;;;;;;;19.57;12.47;;;9.20;81.10;;;;;;5090172;28;20711;-69
2023/04/11 02:57:07;;;;;;;15.83;11.37;;;9.10;82.60;;;;;;5090415;28;20210;-70
2023/04/11 02:59:35;;;;;;;22.20;13.67;;;9.10;84.70;;;;;;5090348;28;20199;-70
2023/04/11 03:02:05;;;;;;;15.57;13.10;;;9.10;83.80;;;;;;5090735;28;20225;-69
2023/04/11 03:04:34;;;;;;;18.10;12.80;;;9.20;84.10;;;;;;5091967;28;20249;-69
2023/04/11 03:07:11;;;;;;;20.60;13.07;;;9.20;83.60;;;;;;5090444;28;20199;-70
2023/04/11 03:09:39;;;;;;;14.33;11.00;;;9.30;83.80;;;;;;5090187;28;20203;-70
2023/04/11 03:12:08;;;;;;;22.37;12.67;;;9.20;84.40;;;;;;5091833;28;20255;-69
2023/04/11 03:14:46;;;;;;;19.73;12.77;;;9.20;84.50;;;;;;5083184;28;20191;-69
2023/04/11 03:17:16;;;;;;;17.17;12.33;;;9.20;85.00;;;;;;5080187;28;20202;-69
2023/04/11 03:19:45;;;;;;;16.20;12.03;;;9.20;84.80;;;;;;5090227;28;20229;-70
2023/04/11 03:22:13;;;;;;;14.33;10.77;;;9.30;85.20;;;;;;5091976;28;20749;-70
2023/04/11 03:24:42;;;;;;;12.47;10.97;;;9.30;84.60;;;;;;5090022;28;20571;-71
2023/04/11 03:27:11;;;;;;;18.67;10.87;;;9.30;85.20;;;;;;5090337;28;20226;-70
2023/04/11 03:29:44;;;;;;;15.17;11.60;;;9.30;84.10;;;;;;5090174;28;20694;-70
2023/04/11 03:32:24;;;;;;;17.30;12.13;;;9.40;83.80;;;;;;5090085;28;20229;-70
2023/04/11 03:34:53;;;;;;;18.13;12.17;;;9.40;83.00;;;;;;5072994;28;20249;-71
2023/04/11 03:37:23;;;;;;;17.33;12.33;;;9.40;83.40;;;;;;5072391;28;20195;-70
2023/04/11 03:39:51;;;;;;;19.63;12.10;;;9.40;83.30;;;;;;5078682;28;20201;-70
2023/04/11 03:42:21;;;;;;;15.37;12.10;;;9.30;83.00;;;;;;5075482;28;20198;-70
2023/04/11 03:44:54;;;;;;;14.77;11.23;;;9.30;85.00;;;;;;5089921;28;20212;-71
2023/04/11 03:47:26;;;;;;;17.13;11.70;;;9.20;85.30;;;;;;5090014;28;20295;-72
2023/04/11 03:49:55;;;;;;;16.37;12.30;;;9.20;85.90;;;;;;5091288;28;20199;-69
2023/04/11 03:52:23;;;;;;;20.87;13.10;;;9.20;86.00;;;;;;5090350;28;20203;-69
2023/04/11 03:54:52;;;;;;;18.13;13.27;;;9.20;87.00;;;;;;5089424;28;20616;-69
2023/04/11 03:57:25;;;;;;;22.23;14.07;;;9.20;86.70;;;;;;5089924;28;20204;-71
2023/04/11 03:59:56;;;;;;;20.53;13.47;;;9.20;88.00;;;;;;5089653;28;20210;-70
2023/04/11 04:02:26;;;;;;;16.90;12.73;;;9.10;88.60;;;;;;5093648;28;20197;-70
2023/04/11 04:04:57;;;;;;;18.00;13.70;;;9.10;88.40;;;;;;5093299;28;20210;-70
2023/04/11 04:07:31;;;;;;;22.37;14.80;;;9.10;88.50;;;;;;5093471;28;20299;-70
2023/04/11 04:10:13;;;;;;;23.23;14.17;;;9.20;89.10;;;;;;5093286;28;20205;-68
2023/04/11 04:12:44;;;;;;;22.23;14.37;;;9.20;89.00;;;;;;5093373;28;20207;-69
2023/04/11 04:15:20;;;;;;;21.03;14.80;;;9.20;89.00;;;;;;5093236;28;20206;-70
2023/04/11 04:17:51;;;;;;;22.13;14.93;;;9.20;88.80;;;;;;5093276;28;20228;-69
2023/04/11 04:20:36;;;;;;;20.53;13.80;;;9.30;88.90;;;;;;5093160;28;20251;-68
2023/04/11 04:23:05;;;;;;;27.03;15.20;;;9.30;89.10;;;;;;5092756;28;20741;-69
2023/04/11 04:25:52;;;;;;;23.60;16.73;;;9.30;90.00;;;;;;5094575;28;20204;-70
2023/04/11 04:28:26;;;;;;;32.87;17.83;;;9.30;90.50;;;;;;5092961;28;20664;-69
2023/04/11 04:30:57;;;;;;;32.33;19.97;;;9.30;90.40;;;;;;5092912;28;20229;-71
2023/04/11 04:33:32;;;;;;;31.60;21.13;;;9.30;90.70;;;;;;5092926;28;20652;-68
2023/04/11 04:36:08;;;;;;;33.97;22.07;;;9.30;90.90;;;;;;5094404;28;20528;-69
2023/04/11 04:38:40;;;;;;;30.23;19.87;;;9.30;91.20;;;;;;5092797;28;20207;-68
2023/04/11 04:41:14;;;;;;;29.10;18.03;;;9.30;91.00;;;;;;5092703;28;20226;-69
2023/04/11 04:43:53;;;;;;;33.80;20.77;;;9.40;91.40;;;;;;5092676;28;20209;-69
2023/04/11 04:46:35;;;;;;;30.80;19.93;;;9.40;91.50;;;;;;5081815;28;20212;-68
2023/04/11 04:49:07;;;;;;;29.57;18.17;;;9.50;91.90;;;;;;5072319;28;20204;-67
2023/04/11 04:51:37;;;;;;;33.93;19.40;;;9.50;91.90;;;;;;5074325;28;20210;-68
2023/04/11 04:54:06;;;;;;;32.97;18.53;;;9.60;92.00;;;;;;5090930;28;20245;-69
2023/04/11 04:56:34;;;;;;;32.53;19.53;;;9.70;92.10;;;;;;5092452;28;20217;-68
2023/04/11 04:59:03;;;;;;;32.90;21.67;;;9.80;92.00;;;;;;5092366;28;20675;-67
2023/04/11 05:01:33;;;;;;;38.63;21.67;;;9.90;91.90;;;;;;5092394;28;20265;-70
2023/04/11 05:04:05;;;;;;;37.53;22.93;;;9.90;92.20;;;;;;5071076;28;20271;-68
2023/04/11 05:06:47;;;;;;;29.80;19.70;;;10.00;92.20;;;;;;5071929;28;20691;-68
2023/04/11 05:09:17;;;;;;;32.47;18.13;;;10.10;92.30;;;;;;5071609;28;20691;-68
2023/04/11 05:11:45;;;;;;;38.43;20.97;;;10.10;92.40;;;;;;5071874;28;20204;-68
2023/04/11 05:14:14;;;;;;;32.17;21.27;;;10.10;92.50;;;;;;5071590;28;20223;-68
2023/04/11 05:16:43;;;;;;;32.73;19.60;;;10.20;92.90;;;;;;5072958;28;20200;-68
2023/04/11 05:19:14;;;;;;;40.80;20.23;;;10.10;93.00;;;;;;5071615;28;20685;-69
2023/04/11 05:21:46;;;;;;;32.87;20.40;;;10.20;93.70;;;;;;5071449;28;20224;-69
2023/04/11 05:24:15;;;;;;;30.73;20.23;;;10.30;93.80;;;;;;5071119;28;20767;-69
2023/04/11 05:26:44;;;;;;;31.97;19.43;;;10.40;94.00;;;;;;5071386;28;20203;-70
2023/04/11 05:29:16;;;;;;;31.47;19.10;;;10.50;94.00;;;;;;5071422;28;20741;-70
2023/04/11 05:31:45;;;;;;;30.80;20.10;;;10.60;94.20;;;;;;5071212;28;20228;-70
2023/04/11 05:34:15;;;;;;;28.87;17.83;;;10.60;94.30;;;;;;5071146;28;20204;-70
2023/04/11 05:36:45;;;;;;;32.03;19.43;;;10.70;94.30;;;;;;5071183;28;20203;-68
2023/04/11 05:39:14;;;;;;;36.13;20.20;;;10.80;94.70;;;;;;5072581;28;20546;-68
2023/04/11 05:41:42;;;;;;;32.43;20.77;;;10.90;94.80;;;;;;5071665;28;20219;-70
2023/04/11 05:44:10;;;;;;;32.17;20.67;;;11.00;95.10;;;;;;5070238;28;20211;-70
2023/04/11 05:46:39;;;;;;;32.50;20.57;;;11.00;95.30;;;;;;5075742;28;20187;-69
2023/04/11 05:49:09;;;;;;;30.70;21.77;;;11.10;95.00;;;;;;5084329;28;20203;-70
2023/04/11 05:51:38;;;;;;;28.70;19.33;;;11.20;95.60;;;;;;5092525;28;20199;-68
2023/04/11 05:54:07;;;;;;;25.80;18.23;;;11.30;95.90;;;;;;5090702;28;20227;-69
2023/04/11 05:56:38;;;;;;;26.43;16.93;;;11.40;96.10;;;;;;5092610;28;20195;-69
2023/04/11 05:59:07;;;;;;;25.03;16.70;;;11.50;96.50;;;;;;5092450;28;20536;-70
2023/04/11 06:01:38;;;;;;;25.00;17.17;;;11.60;96.40;;;;;;5092545;28;20562;-71
2023/04/11 06:04:07;;;;;;;25.87;18.37;;;11.70;96.90;;;;;;5072179;28;20609;-70
2023/04/11 06:06:35;;;;;;;21.90;17.03;;;11.80;96.50;;;;;;5072009;28;20678;-70
2023/04/11 06:09:07;;;;;;;27.00;18.63;;;11.80;96.80;;;;;;5071738;28;20207;-69
2023/04/11 06:11:36;;;;;;;29.57;20.13;;;11.90;96.90;;;;;;5081026;28;20286;-70
2023/04/11 06:14:06;;;;;;;26.03;18.23;;;12.00;96.90;;;;;;5071833;28;20200;-71
2023/04/11 06:16:35;;;;;;;28.20;17.50;;;12.10;96.60;;;;;;5070879;28;20559;-70
2023/04/11 06:19:05;;;;;;;24.70;17.83;;;12.20;96.60;;;;;;5075950;28;20199;-69
2023/04/11 06:21:33;;;;;;;20.67;16.10;;;12.20;96.20;;;;;;5070898;28;20228;-70
2023/04/11 06:24:10;;;;;;;25.20;15.50;;;12.20;96.60;;;;;;5071226;28;20204;-70
2023/04/11 06:26:38;;;;;;;22.03;14.77;;;12.30;96.60;;;;;;5071567;28;20199;-70
2023/04/11 06:29:07;;;;;;;20.50;15.87;;;12.40;97.10;;;;;;5080897;28;20207;-70
2023/04/11 06:31:36;;;;;;;17.77;13.53;;;12.40;96.50;;;;;;5084355;28;20207;-72
2023/04/11 06:34:05;;;;;;;18.87;14.97;;;12.40;97.20;;;;;;5083977;28;20250;-70
2023/04/11 06:36:33;;;;;;;24.70;16.37;;;12.40;97.20;;;;;;5080163;28;20660;-68
2023/04/11 06:39:02;;;;;;;18.70;13.13;;;12.50;97.40;;;;;;5072955;28;20257;-69
2023/04/11 06:41:32;;;;;;;19.87;14.87;;;12.60;97.30;;;;;;5080548;28;20213;-70
2023/04/11 06:44:00;;;;;;;18.13;13.70;;;12.70;97.40;;;;;;5071480;28;20196;-70
2023/04/11 06:46:29;;;;;;;16.70;13.00;;;12.80;97.10;;;;;;5069754;28;20201;-70
2023/04/11 06:48:57;;;;;;;18.97;13.73;;;12.80;96.90;;;;;;5081513;28;20693;-70
2023/04/11 06:51:26;;;;;;;23.93;17.97;;;12.80;97.20;;;;;;5070606;28;20254;-70
2023/04/11 06:53:54;;;;;;;15.27;12.20;;;13.00;97.40;;;;;;5078230;28;20227;-69
2023/04/11 06:56:23;;;;;;;19.10;12.43;;;13.10;97.10;;;;;;5091514;28;20211;-69
2023/04/11 06:58:53;;;;;;;14.87;12.20;;;13.10;97.10;;;;;;5091464;28;20208;-69
2023/04/11 07:01:24;;;;;;;14.63;11.33;;;13.10;96.40;;;;;;5088761;28;20206;-69
2023/04/11 07:03:53;;;;;;;15.97;12.70;;;13.30;96.10;;;;;;5082814;28;20562;-70
2023/04/11 07:06:22;;;;;;;18.20;12.73;;;13.40;96.00;;;;;;5083788;28;20553;-69
2023/04/11 07:08:52;;;;;;;14.90;11.70;;;13.50;96.30;;;;;;5071295;28;20193;-69
2023/04/11 07:11:20;;;;;;;12.27;10.23;;;13.60;95.40;;;;;;5071416;28;20197;-70
2023/04/11 07:13:49;;;;;;;14.73;10.57;;;13.80;94.60;;;;;;5069841;28;20546;-69
2023/04/11 07:16:19;;;;;;;15.03;10.33;;;13.80;93.80;;;;;;5071259;28;20193;-68
2023/04/11 07:18:48;;;;;;;17.37;11.83;;;14.00;95.00;;;;;;5071251;28;20239;-68
2023/04/11 07:21:16;;;;;;;15.07;10.33;;;14.10;93.40;;;;;;5071312;28;20197;-68
2023/04/11 07:23:45;;;;;;;11.87;9.87;;;14.20;92.60;;;;;;5070996;28;20589;-68
2023/04/11 07:26:15;;;;;;;16.23;11.03;;;14.50;92.60;;;;;;5071246;28;20204;-70
2023/04/11 07:28:44;;;;;;;11.63;10.00;;;14.60;92.50;;;;;;5071098;28;20292;-70
2023/04/11 07:31:12;;;;;;;11.07;9.43;;;14.80;90.70;;;;;;5071129;28;20718;-70
2023/04/11 07:33:44;;;;;;;11.23;9.27;;;14.90;90.20;;;;;;5070868;28;20778;-70
2023/04/11 07:36:13;;;;;;;10.37;9.13;;;15.00;85.40;;;;;;5071841;28;20200;-69
2023/04/11 07:38:41;;;;;;;14.10;9.90;;;15.00;85.10;;;;;;5074840;28;20295;-69
2023/04/11 07:41:10;;;;;;;10.30;9.23;;;15.10;84.80;;;;;;5074849;28;20702;-70
2023/04/11 07:43:38;;;;;;;10.57;9.03;;;15.20;82.80;;;;;;5083227;28;20224;-70
2023/04/11 07:46:07;;;;;;;11.50;9.33;;;15.20;81.10;;;;;;5075849;28;20564;-70
2023/04/11 07:48:35;;;;;;;12.27;8.27;;;15.30;83.30;;;;;;5074480;28;20193;-71
2023/04/11 07:51:05;;;;;;;11.07;8.67;;;15.40;81.00;;;;;;5074851;28;20202;-68
2023/04/11 07:53:34;;;;;;;11.30;8.90;;;15.50;79.60;;;;;;5083369;28;20242;-71
2023/04/11 07:56:03;;;;;;;10.67;8.53;;;15.60;78.30;;;;;;5074258;28;20203;-70
2023/04/11 07:58:32;;;;;;;10.13;7.97;;;15.60;77.20;;;;;;5074396;28;20681;-68
2023/04/11 08:01:01;;;;;;;13.33;9.10;;;15.60;76.30;;;;;;5074554;28;20202;-69
2023/04/11 08:03:30;;;;;;;9.40;8.37;;;15.70;77.90;;;;;;5074130;28;20733;-68
2023/04/11 08:05:59;;;;;;;13.20;8.80;;;15.90;77.30;;;;;;5074336;28;20204;-72
2023/04/11 08:08:28;;;;;;;9.63;8.60;;;16.10;77.00;;;;;;5074364;28;20191;-70
2023/04/11 08:10:57;;;;;;;9.93;7.37;;;16.20;74.80;;;;;;5074267;28;20197;-71
2023/04/11 08:13:28;;;;;;;13.00;8.40;;;16.40;72.60;;;;;;5070224;28;20530;-71
2023/04/11 08:15:57;;;;;;;12.87;8.20;;;16.50;73.70;;;;;;5074099;28;20213;-70
2023/04/11 08:18:25;;;;;;;11.17;7.83;;;16.60;73.40;;;;;;5074012;28;20208;-71
2023/04/11 08:20:54;;;;;;;10.80;7.90;;;16.80;70.50;;;;;;5073823;28;20530;-69
2023/04/11 08:23:22;;;;;;;13.73;9.83;;;16.90;70.10;;;;;;5073952;28;20250;-68
2023/04/11 08:25:52;;;;;;;13.93;8.00;;;16.90;68.10;;;;;;5073844;28;20202;-68
2023/04/11 08:28:21;;;;;;;9.37;6.57;;;17.00;68.10;;;;;;5073622;28;20199;-68
2023/04/11 08:30:51;;;;;;;11.83;7.10;;;17.00;64.70;;;;;;5073809;28;20234;-71
2023/04/11 08:33:21;;;;;;;10.83;8.17;;;16.90;65.60;;;;;;5073047;28;20266;-68
2023/04/11 08:35:49;;;;;;;12.73;8.87;;;17.00;66.40;;;;;;5073740;28;20193;-67
2023/04/11 08:38:18;;;;;;;9.87;7.13;;;17.00;67.20;;;;;;5073463;28;20216;-67
2023/04/11 08:40:46;;;;;;;12.07;6.20;;;17.00;63.80;;;;;;5073326;28;20204;-67
2023/04/11 08:43:17;;;;;;;6.93;6.03;;;16.80;62.30;;;;;;5071991;28;20226;-68
2023/04/11 08:45:45;;;;;;;9.50;6.60;;;16.90;63.10;;;;;;5073408;28;20640;-71
2023/04/11 08:48:14;;;;;;;11.40;6.20;;;17.10;62.50;;;;;;5073392;28;20195;-71
2023/04/11 08:50:44;;;;;;;10.97;7.03;;;17.10;61.00;;;;;;5073576;28;20302;-72
2023/04/11 08:53:12;;;;;;;6.67;5.77;;;17.30;62.50;;;;;;5073250;28;20238;-72
2023/04/11 08:55:48;;;;;;;10.30;7.33;;;17.60;61.50;;;;;;5073266;28;20204;-70
2023/04/11 08:58:18;;;;;;;8.50;6.23;;;17.80;61.40;;;;;;5073375;28;20213;-72
2023/04/11 09:00:47;;;;;;;8.97;6.10;;;17.80;58.20;;;;;;5074549;28;20206;-69
2023/04/11 09:03:16;;;;;;;8.93;7.07;;;17.70;57.70;;;;;;5091240;28;20219;-68
2023/04/11 09:05:45;;;;;;;9.70;6.47;;;17.80;59.00;;;;;;5093532;28;20625;-67
2023/04/11 09:08:15;;;;;;;13.40;6.50;;;17.90;58.20;;;;;;5093554;28;20668;-69
2023/04/11 09:10:45;;;;;;;18.73;7.77;;;17.90;57.40;;;;;;5093290;28;20203;-70
2023/04/11 09:13:22;;;;;;;15.17;5.90;;;17.80;57.20;;;;;;5093501;28;20189;-70
2023/04/11 09:16:04;;;;;;;8.07;5.23;;;17.70;56.70;;;;;;5093179;28;20569;-71
2023/04/11 09:18:34;;;;;;;10.30;5.90;;;17.60;56.70;;;;;;5093258;28;20203;-68
2023/04/11 09:21:04;;;;;;;9.73;5.33;;;17.70;57.00;;;;;;5093243;28;20207;-68
2023/04/11 09:23:33;;;;;;;8.13;5.10;;;17.90;56.70;;;;;;5083460;28;20256;-65
2023/04/11 09:26:01;;;;;;;9.40;5.90;;;18.10;56.00;;;;;;5063150;28;20197;-71
2023/04/11 09:28:41;;;;;;;8.80;6.10;;;18.40;57.10;;;;;;5073494;28;20207;-68
2023/04/11 09:31:11;;;;;;;6.83;5.20;;;18.70;56.70;;;;;;5071863;28;20540;-69
2023/04/11 09:33:52;;;;;;;5.70;5.00;;;19.10;56.90;;;;;;5077240;28;20699;-68
2023/04/11 09:36:23;;;;;;;5.83;4.97;;;19.50;55.60;;;;;;5071263;28;20245;-68
2023/04/11 09:38:52;;;;;;;7.30;5.10;;;19.70;52.90;;;;;;5072927;28;20254;-65
2023/04/11 09:41:30;;;;;;;7.67;4.80;;;19.60;51.80;;;;;;5072377;28;20196;-67
2023/04/11 09:44:01;;;;;;;11.47;5.97;;;19.50;51.60;;;;;;5072195;28;20262;-67
2023/04/11 09:46:30;;;;;;;9.00;6.80;;;19.50;52.40;;;;;;5072297;28;20196;-66
2023/04/11 09:49:00;;;;;;;9.97;5.57;;;19.60;50.70;;;;;;5072450;28;20220;-69
2023/04/11 09:51:29;;;;;;;8.60;5.83;;;19.30;50.60;;;;;;5072352;28;20193;-69
2023/04/11 09:54:05;;;;;;;8.40;6.30;;;19.40;52.00;;;;;;5070115;28;20602;-70
2023/04/11 09:56:34;;;;;;;8.90;5.70;;;19.50;50.90;;;;;;5071208;28;20208;-71
2023/04/11 09:59:04;;;;;;;10.10;6.77;;;19.60;50.90;;;;;;5071649;28;20193;-69
2023/04/11 10:01:33;;;;;;;8.40;6.77;;;19.90;52.60;;;;;;5072572;28;20224;-69
2023/04/11 10:04:03;;;;;;;7.87;4.43;;;20.00;50.40;;;;;;5072254;28;20311;-71
2023/04/11 10:06:34;;;;;;;6.83;4.77;;;20.10;50.20;;;;;;5072185;28;20197;-70
2023/04/11 10:09:08;;;;;;;5.70;4.67;;;20.30;50.00;;;;;;5072216;28;20199;-69
2023/04/11 10:11:37;;;;;;;5.53;4.90;;;20.10;48.70;;;;;;5072109;28;20213;-70
2023/04/11 10:14:07;;;;;;;7.83;5.40;;;19.90;48.60;;;;;;5072250;28;20683;-69
2023/04/11 10:16:36;;;;;;;9.90;8.27;;;19.80;49.10;;;;;;5072112;28;20193;-71
2023/04/11 10:19:24;;;;;;;9.67;4.63;;;19.90;49.30;;;;;;5071988;28;20276;-71
2023/04/11 10:21:53;;;;;;;6.33;4.77;;;20.00;49.10;;;;;;5071943;28;20284;-71
2023/04/11 10:24:22;;;;;;;9.10;4.93;;;20.20;49.70;;;;;;5072044;28;20223;-70
2023/04/11 10:26:52;;;;;;;11.00;8.30;;;20.20;48.70;;;;;;5071753;28;20291;-70
2023/04/11 10:29:47;;;;;;;7.27;4.87;;;20.30;48.70;;;;;;5080848;28;20217;-68
2023/04/11 10:32:23;;;;;;;9.40;4.70;;;20.30;48.20;;;;;;5092059;28;20694;-67
2023/04/11 10:35:31;;;;;;;10.17;5.17;;;20.50;49.20;;;;;;5088987;28;20197;-69
2023/04/11 10:37:59;;;;;;;6.37;5.23;;;20.90;47.90;;;;;;5071819;28;20194;-70
2023/04/11 10:40:29;;;;;;;7.87;5.63;;;20.90;46.40;;;;;;5078693;28;20241;-67
2023/04/11 10:43:17;;;;;;;8.37;5.20;;;20.10;47.00;;;;;;5091772;28;20280;-71
2023/04/11 10:46:17;;;;;;;6.87;5.40;;;19.70;48.00;;;;;;5091829;28;20223;-72
2023/04/11 10:48:59;;;;;;;8.73;4.90;;;19.60;48.70;;;;;;5091961;28;20592;-70
2023/04/11 10:51:29;;;;;;;10.70;5.53;;;20.00;48.60;;;;;;5091815;28;20202;-71
2023/04/11 10:53:59;;;;;;;9.63;6.40;;;20.40;48.30;;;;;;5090993;28;20234;-65
2023/04/11 10:56:56;;;;;;;11.37;6.20;;;20.40;47.60;;;;;;5072377;28;20208;-71
2023/04/11 10:59:59;;;;;;;6.63;5.97;;;20.40;46.40;;;;;;5072105;28;20546;-70
2023/04/11 11:02:39;;;;;;;6.10;5.50;;;20.10;46.70;;;;;;5072059;28;20194;-68
2023/04/11 11:05:23;;;;;;;6.50;5.00;;;20.50;47.90;;;;;;5071859;28;20281;-67
2023/04/11 11:07:54;;;;;;;8.93;5.17;;;20.70;46.90;;;;;;5069918;28;20194;-65
2023/04/11 11:10:42;;;;;;;9.07;6.07;;;20.60;46.70;;;;;;5072391;28;20734;-67
2023/04/11 11:13:11;;;;;;;7.50;5.30;;;20.50;47.40;;;;;;5075977;28;20198;-67
2023/04/11 11:15:46;;;;;;;5.87;4.90;;;20.80;47.50;;;;;;5075255;28;20733;-68
2023/04/11 11:18:17;;;;;;;7.53;4.73;;;20.90;45.90;;;;;;5070614;28;20211;-66
2023/04/11 11:20:46;;;;;;;7.47;5.53;;;20.80;45.70;;;;;;5074866;28;20283;-66
2023/04/11 11:23:14;;;;;;;5.97;4.73;;;20.70;45.50;;;;;;5074775;28;20215;-66
2023/04/11 11:25:52;;;;;;;7.43;4.93;;;20.40;45.60;;;;;;5075759;28;20221;-66
2023/04/11 11:28:21;;;;;;;8.23;5.23;;;20.50;45.70;;;;;;5075447;28;20210;-67
2023/04/11 11:30:51;;;;;;;7.10;5.03;;;20.40;45.90;;;;;;5075793;28;20333;-69
2023/04/11 11:33:23;;;;;;;5.33;4.77;;;20.50;45.40;;;;;;5075185;28;20254;-67
2023/04/11 11:35:55;;;;;;;9.37;4.90;;;20.70;45.40;;;;;;5075207;28;20211;-68
2023/04/11 11:38:26;;;;;;;7.67;5.10;;;20.80;44.20;;;;;;5074610;28;20702;-68
2023/04/11 11:40:56;;;;;;;7.33;5.30;;;20.70;44.80;;;;;;5080158;28;20230;-69
2023/04/11 11:43:26;;;;;;;8.83;5.17;;;20.60;44.90;;;;;;5075305;28;20199;-67
2023/04/11 11:46:14;;;;;;;6.73;4.70;;;20.80;45.00;;;;;;5075209;28;20222;-68
2023/04/11 11:48:58;;;;;;;11.03;4.80;;;20.60;44.60;;;;;;5074738;28;20193;-66
2023/04/11 11:51:27;;;;;;;7.40;4.93;;;20.70;45.20;;;;;;5075245;28;20194;-68
2023/04/11 11:54:05;;;;;;;6.00;4.53;;;20.80;44.90;;;;;;5074482;28;20643;-68
2023/04/11 11:56:34;;;;;;;10.00;5.13;;;20.90;44.60;;;;;;5074916;28;20225;-68
2023/04/11 11:59:03;;;;;;;8.07;4.87;;;21.00;44.30;;;;;;5080144;28;20207;-68
2023/04/11 12:01:33;;;;;;;5.70;5.10;;;21.30;44.90;;;;;;5079105;28;20651;-67
2023/04/11 12:04:05;;;;;;;7.43;4.90;;;21.70;44.50;;;;;;5073822;28;20194;-66
2023/04/11 12:06:34;;;;;;;8.37;5.30;;;21.30;43.10;;;;;;5074065;28;20229;-69
2023/04/11 12:09:04;;;;;;;5.40;4.40;;;21.00;43.30;;;;;;5074149;28;20193;-67
2023/04/11 12:11:39;;;;;;;6.87;4.67;;;20.90;43.40;;;;;;5074654;28;20224;-67
2023/04/11 12:14:09;;;;;;;5.77;4.43;;;20.80;44.00;;;;;;5074876;28;20605;-67
2023/04/11 12:16:38;;;;;;;5.27;4.33;;;20.80;44.00;;;;;;5074827;28;20201;-66
2023/04/11 12:19:11;;;;;;;6.23;4.73;;;20.50;44.50;;;;;;5074143;28;20682;-67
2023/04/11 12:21:40;;;;;;;9.00;4.73;;;20.40;45.10;;;;;;5073147;28;20606;-67
2023/04/11 12:24:09;;;;;;;6.43;4.30;;;20.60;44.70;;;;;;5074385;28;20656;-67
2023/04/11 12:26:37;;;;;;;7.43;4.50;;;20.60;44.40;;;;;;5074271;28;20217;-66
2023/04/11 12:29:12;;;;;;;6.30;4.93;;;20.50;44.70;;;;;;5074355;28;20199;-66
2023/04/11 12:31:41;;;;;;;6.97;4.47;;;20.30;44.60;;;;;;5074568;28;20224;-66
2023/04/11 12:34:13;;;;;;;5.40;4.13;;;19.80;45.20;;;;;;5074552;28;20200;-67
2023/04/11 12:36:41;;;;;;;8.27;4.83;;;19.70;45.70;;;;;;5070917;28;20196;-66
2023/04/11 12:39:10;;;;;;;6.20;4.40;;;19.70;45.40;;;;;;5074001;28;20203;-67
2023/04/11 12:41:40;;;;;;;9.23;4.50;;;19.60;45.70;;;;;;5074208;28;20200;-67
2023/04/11 12:44:09;;;;;;;7.97;5.10;;;19.60;45.90;;;;;;5074171;28;20212;-66
2023/04/11 12:46:38;;;;;;;7.03;4.97;;;19.60;46.40;;;;;;5074160;28;20574;-67
2023/04/11 12:49:07;;;;;;;5.53;4.70;;;19.80;46.10;;;;;;5073626;28;20200;-67
2023/04/11 12:51:37;;;;;;;6.17;4.67;;;20.20;46.20;;;;;;5073764;28;20219;-66
2023/04/11 12:54:08;;;;;;;7.63;5.40;;;20.40;45.60;;;;;;5073808;28;20236;-70
2023/04/11 12:56:37;;;;;;;9.77;5.50;;;20.20;45.00;;;;;;5073931;28;20201;-69